Time,TemperatureF,DewpointF,PressureIn,WindDirection,WindDirectionDegrees,WindSpeedMPH,WindSpeedGustMPH,Humidity,HourlyPrecipIn,Conditions,Clouds,dailyrainin,SoftwareType,DateUTC
2013-09-10 00:02:00,72.2,66.4,29.81,South,180,0.2,2.9,82,0.00,,,0.00,WUHU216HW,2013-09-10 05:02:00,
2013-09-10 00:07:00,72.4,66.6,29.82,SE,135,0.7,2.9,82,0.00,,,0.00,WUHU216HW,2013-09-10 05:07:00,
2013-09-10 00:12:00,72.4,66.6,29.81,SSE,158,0.0,2.5,82,0.00,,,0.00,WUHU216HW,2013-09-10 05:12:00,
2013-09-10 00:17:00,72.2,66.4,29.82,SSE,158,0.0,1.8,82,0.00,,,0.00,WUHU216HW,2013-09-10 05:17:00,
2013-09-10 00:22:00,72.2,66.4,29.81,SE,135,1.8,1.8,82,0.00,,,0.00,WUHU216HW,2013-09-10 05:22:00,
2013-09-10 00:27:00,72.2,66.7,29.81,SE,135,0.4,1.8,83,0.00,,,0.00,WUHU216HW,2013-09-10 05:27:00,
2013-09-10 00:32:00,72.2,66.4,29.81,SE,135,0.0,0.9,82,0.00,,,0.00,WUHU216HW,2013-09-10 05:32:00,
2013-09-10 00:37:00,72.0,66.3,29.81,SE,135,0.9,0.9,82,0.00,,,0.00,WUHU216HW,2013-09-10 05:37:00,
2013-09-10 00:42:00,72.0,66.5,29.81,SE,135,0.0,0.9,83,0.00,,,0.00,WUHU216HW,2013-09-10 05:42:00,
2013-09-10 00:47:00,71.8,66.3,29.81,SE,135,0.0,0.2,83,0.00,,,0.00,WUHU216HW,2013-09-10 05:47:00,
2013-09-10 00:52:00,71.6,65.9,29.81,SE,135,0.0,0.0,82,0.00,,,0.00,WUHU216HW,2013-09-10 05:52:00,
2013-09-10 00:57:00,71.6,65.9,29.81,SE,135,0.0,0.0,82,0.00,,,0.00,WUHU216HW,2013-09-10 05:57:00,
2013-09-10 01:02:00,71.3,65.5,29.82,SE,135,0.0,0.0,82,0.00,,,0.00,WUHU216HW,2013-09-10 06:02:00,
2013-09-10 01:07:00,71.1,65.4,29.82,SE,135,0.0,0.0,82,0.00,,,0.00,WUHU216HW,2013-09-10 06:07:00,
2013-09-10 01:12:00,70.9,65.2,29.81,SE,135,0.0,0.0,82,0.00,,,0.00,WUHU216HW,2013-09-10 06:12:00,
2013-09-10 01:17:00,70.9,65.2,29.82,SE,135,0.0,0.0,82,0.00,,,0.00,WUHU216HW,2013-09-10 06:17:00,
2013-09-10 01:22:00,70.7,65.3,29.82,SE,135,0.0,0.0,83,0.00,,,0.00,WUHU216HW,2013-09-10 06:22:00,
2013-09-10 01:27:00,70.6,65.1,29.82,SE,135,0.0,0.0,83,0.00,,,0.00,WUHU216HW,2013-09-10 06:27:00,
2013-09-10 01:32:00,70.6,65.1,29.82,SE,135,0.0,0.0,83,0.00,,,0.00,WUHU216HW,2013-09-10 06:32:00,
2013-09-10 01:37:00,70.6,65.1,29.82,SE,135,0.0,0.0,83,0.00,,,0.00,WUHU216HW,2013-09-10 06:37:00,
2013-09-10 01:42:00,70.4,65.3,29.82,SE,135,0.0,0.0,84,0.00,,,0.00,WUHU216HW,2013-09-10 06:42:00,
2013-09-10 01:47:00,70.2,64.7,29.82,SE,135,0.0,0.0,83,0.00,,,0.00,WUHU216HW,2013-09-10 06:47:00,
2013-09-10 01:52:00,70.2,65.1,29.82,SE,135,0.0,0.0,84,0.00,,,0.00,WUHU216HW,2013-09-10 06:52:00,
2013-09-10 01:57:00,70.2,65.1,29.82,SE,135,0.0,0.0,84,0.00,,,0.00,WUHU216HW,2013-09-10 06:57:00,
2013-09-10 02:02:00,70.4,65.3,29.82,SE,135,0.0,0.0,84,0.00,,,0.00,WUHU216HW,2013-09-10 07:02:00,
2013-09-10 02:07:00,70.2,65.1,29.82,SE,135,0.0,0.0,84,0.00,,,0.00,WUHU216HW,2013-09-10 07:07:00,
2013-09-10 02:12:00,70.2,65.1,29.82,SE,135,0.0,0.0,84,0.00,,,0.00,WUHU216HW,2013-09-10 07:12:00,
2013-09-10 02:17:00,70.2,65.1,29.82,SE,135,0.0,0.0,84,0.00,,,0.00,WUHU216HW,2013-09-10 07:17:00,
2013-09-10 02:22:00,70.2,65.1,29.82,SE,135,0.0,0.0,84,0.00,,,0.00,WUHU216HW,2013-09-10 07:22:00,
2013-09-10 02:27:00,70.0,64.9,29.82,SE,135,0.0,0.0,84,0.00,,,0.00,WUHU216HW,2013-09-10 07:27:00,
2013-09-10 02:32:00,70.2,65.1,29.82,SE,135,0.0,0.4,84,0.00,,,0.00,WUHU216HW,2013-09-10 07:32:00,
2013-09-10 02:37:00,70.4,65.3,29.82,SE,135,0.4,0.4,84,0.00,,,0.00,WUHU216HW,2013-09-10 07:37:00,
2013-09-10 02:42:00,70.4,65.6,29.82,SE,135,0.0,0.4,85,0.00,,,0.00,WUHU216HW,2013-09-10 07:42:00,
2013-09-10 02:47:00,70.4,65.3,29.82,SE,135,0.4,0.4,84,0.00,,,0.00,WUHU216HW,2013-09-10 07:47:00,
2013-09-10 02:52:00,70.2,65.1,29.82,SE,135,0.0,0.4,84,0.00,,,0.00,WUHU216HW,2013-09-10 07:52:00,
2013-09-10 02:57:00,70.0,64.9,29.82,SE,135,0.0,0.0,84,0.00,,,0.00,WUHU216HW,2013-09-10 07:57:00,
2013-09-10 03:02:00,69.8,64.7,29.82,SE,135,0.0,0.0,84,0.00,,,0.00,WUHU216HW,2013-09-10 08:02:00,
2013-09-10 03:07:00,69.8,64.7,29.82,SE,135,0.0,0.0,84,0.00,,,0.00,WUHU216HW,2013-09-10 08:07:00,
2013-09-10 03:12:00,69.7,64.5,29.82,SE,135,0.0,0.0,84,0.00,,,0.00,WUHU216HW,2013-09-10 08:12:00,
2013-09-10 03:17:00,69.5,64.4,29.82,SE,135,0.0,0.0,84,0.00,,,0.00,WUHU216HW,2013-09-10 08:17:00,
2013-09-10 03:22:00,69.5,64.4,29.82,SE,135,0.0,0.0,84,0.00,,,0.00,WUHU216HW,2013-09-10 08:22:00,
2013-09-10 03:27:00,69.1,64.1,29.82,SE,135,0.0,0.0,84,0.00,,,0.00,WUHU216HW,2013-09-10 08:27:00,
2013-09-10 03:32:00,69.1,64.1,29.82,SE,135,0.0,0.0,84,0.00,,,0.00,WUHU216HW,2013-09-10 08:32:00,
2013-09-10 03:37:00,68.8,63.7,29.82,SE,135,0.0,0.0,84,0.00,,,0.00,WUHU216HW,2013-09-10 08:37:00,
2013-09-10 03:42:00,68.8,63.7,29.82,SE,135,0.0,0.0,84,0.00,,,0.00,WUHU216HW,2013-09-10 08:42:00,
2013-09-10 03:47:00,68.6,63.5,29.82,SE,135,0.0,0.0,84,0.00,,,0.00,WUHU216HW,2013-09-10 08:47:00,
2013-09-10 03:52:00,68.6,63.5,29.82,SE,135,0.0,0.0,84,0.00,,,0.00,WUHU216HW,2013-09-10 08:52:00,
2013-09-10 03:57:00,68.4,63.4,29.82,SE,135,0.0,0.0,84,0.00,,,0.00,WUHU216HW,2013-09-10 08:57:00,
2013-09-10 04:02:00,68.2,63.2,29.82,SE,135,0.0,0.0,84,0.00,,,0.00,WUHU216HW,2013-09-10 09:02:00,
2013-09-10 04:07:00,68.2,63.2,29.82,SE,135,0.0,0.0,84,0.00,,,0.00,WUHU216HW,2013-09-10 09:07:00,
2013-09-10 04:12:00,68.0,63.0,29.82,SE,135,0.0,0.0,84,0.00,,,0.00,WUHU216HW,2013-09-10 09:12:00,
2013-09-10 04:17:00,68.0,63.0,29.82,SE,135,0.0,0.0,84,0.00,,,0.00,WUHU216HW,2013-09-10 09:17:00,
2013-09-10 04:22:00,68.0,63.4,29.82,SE,135,0.0,0.0,85,0.00,,,0.00,WUHU216HW,2013-09-10 09:22:00,
2013-09-10 04:27:00,68.0,63.4,29.82,SE,135,0.0,0.0,85,0.00,,,0.00,WUHU216HW,2013-09-10 09:27:00,
2013-09-10 04:32:00,68.2,63.6,29.82,SE,135,0.0,0.0,85,0.00,,,0.00,WUHU216HW,2013-09-10 09:32:00,
2013-09-10 04:37:00,68.4,63.7,29.82,SE,135,0.0,0.0,85,0.00,,,0.00,WUHU216HW,2013-09-10 09:37:00,
2013-09-10 04:42:00,68.6,63.9,29.82,SE,135,0.0,0.0,85,0.00,,,0.00,WUHU216HW,2013-09-10 09:42:00,
2013-09-10 04:47:00,68.8,64.1,29.82,SE,135,0.4,0.9,85,0.00,,,0.00,WUHU216HW,2013-09-10 09:47:00,
2013-09-10 04:52:00,68.8,64.1,29.82,SE,135,0.0,0.9,85,0.00,,,0.00,WUHU216HW,2013-09-10 09:52:00,
2013-09-10 04:57:00,68.9,64.3,29.82,SSW,203,0.0,1.1,85,0.00,,,0.00,WUHU216HW,2013-09-10 09:57:00,
2013-09-10 05:02:00,68.9,64.3,29.82,SW,225,0.0,1.3,85,0.00,,,0.00,WUHU216HW,2013-09-10 10:02:00,
2013-09-10 05:07:00,68.9,64.3,29.82,SW,225,0.0,1.3,85,0.00,,,0.00,WUHU216HW,2013-09-10 10:07:00,
2013-09-10 05:12:00,68.9,64.3,29.82,SW,225,0.0,0.0,85,0.00,,,0.00,WUHU216HW,2013-09-10 10:12:00,
2013-09-10 05:17:00,68.9,64.3,29.82,SW,225,0.0,0.0,85,0.00,,,0.00,WUHU216HW,2013-09-10 10:17:00,
2013-09-10 05:22:00,68.9,64.3,29.82,SW,225,0.0,0.0,85,0.00,,,0.00,WUHU216HW,2013-09-10 10:22:00,
2013-09-10 05:27:00,68.9,64.3,29.82,SW,225,0.0,0.0,85,0.00,,,0.00,WUHU216HW,2013-09-10 10:27:00,
2013-09-10 05:32:00,68.9,64.3,29.82,SW,225,0.0,0.9,85,0.00,,,0.00,WUHU216HW,2013-09-10 10:32:00,
2013-09-10 05:37:00,68.9,64.3,29.83,SW,225,0.0,0.9,85,0.00,,,0.00,WUHU216HW,2013-09-10 10:37:00,
2013-09-10 05:42:00,69.1,64.4,29.83,SW,225,0.0,0.0,85,0.00,,,0.00,WUHU216HW,2013-09-10 10:42:00,
2013-09-10 05:47:00,69.1,64.4,29.83,SW,225,0.0,0.9,85,0.00,,,0.00,WUHU216HW,2013-09-10 10:47:00,
2013-09-10 05:52:00,69.1,64.4,29.83,SW,225,0.0,0.9,85,0.00,,,0.00,WUHU216HW,2013-09-10 10:52:00,
2013-09-10 05:57:00,69.3,64.9,29.83,SW,225,0.0,1.1,86,0.00,,,0.00,WUHU216HW,2013-09-10 10:57:00,
2013-09-10 06:02:00,69.5,64.7,29.83,SW,225,0.0,1.1,85,0.00,,,0.00,WUHU216HW,2013-09-10 11:02:00,
2013-09-10 06:07:00,69.5,64.7,29.83,SW,225,0.4,0.4,85,0.00,,,0.00,WUHU216HW,2013-09-10 11:07:00,
2013-09-10 06:12:00,69.5,65.1,29.83,SW,225,0.0,0.4,86,0.00,,,0.00,WUHU216HW,2013-09-10 11:12:00,
2013-09-10 06:17:00,69.5,64.7,29.83,SW,225,0.0,0.2,85,0.00,,,0.00,WUHU216HW,2013-09-10 11:17:00,
2013-09-10 06:22:00,69.5,64.7,29.83,SW,225,0.0,0.0,85,0.00,,,0.00,WUHU216HW,2013-09-10 11:22:00,
2013-09-10 06:27:00,69.5,65.1,29.84,SW,225,0.0,0.0,86,0.00,,,0.00,WUHU216HW,2013-09-10 11:27:00,
2013-09-10 06:32:00,69.5,65.1,29.84,SW,225,0.0,0.0,86,0.00,,,0.00,WUHU216HW,2013-09-10 11:32:00,
2013-09-10 06:37:00,70.0,66.0,29.84,SSE,158,0.7,0.7,87,0.00,,,0.00,WUHU216HW,2013-09-10 11:37:00,
2013-09-10 06:42:00,70.2,66.4,29.84,SSE,158,0.0,0.7,88,0.00,,,0.00,WUHU216HW,2013-09-10 11:42:00,
2013-09-10 06:47:00,70.0,66.0,29.84,SSE,158,0.0,0.0,87,0.00,,,0.00,WUHU216HW,2013-09-10 11:47:00,
2013-09-10 06:52:00,70.0,66.0,29.84,SSE,158,0.0,0.0,87,0.00,,,0.00,WUHU216HW,2013-09-10 11:52:00,
2013-09-10 06:57:00,70.0,66.0,29.84,SSE,158,0.0,0.0,87,0.00,,,0.00,WUHU216HW,2013-09-10 11:57:00,
2013-09-10 07:02:00,70.2,66.2,29.84,SSE,158,0.0,0.0,87,0.00,,,0.00,WUHU216HW,2013-09-10 12:02:00,
2013-09-10 07:07:00,70.6,66.5,29.85,SSE,158,0.7,0.7,87,0.00,,,0.00,WUHU216HW,2013-09-10 12:07:00,
2013-09-10 07:12:00,70.6,66.5,29.85,SSE,158,0.0,0.9,87,0.00,,,0.00,WUHU216HW,2013-09-10 12:12:00,
2013-09-10 07:16:00,70.9,67.1,29.85,SSE,158,0.0,1.6,88,0.00,,,0.00,WUHU216HW,2013-09-10 12:16:00,
2013-09-10 07:21:00,70.9,67.1,29.85,SE,135,0.7,1.6,88,0.00,,,0.00,WUHU216HW,2013-09-10 12:21:00,
2013-09-10 07:26:00,71.1,67.3,29.85,ESE,113,0.4,1.6,88,0.00,,,0.00,WUHU216HW,2013-09-10 12:26:00,
2013-09-10 07:31:00,71.3,67.5,29.85,ESE,113,0.0,1.8,88,0.00,,,0.00,WUHU216HW,2013-09-10 12:31:00,
2013-09-10 07:36:00,71.3,67.5,29.86,ESE,113,0.4,1.8,88,0.00,,,0.00,WUHU216HW,2013-09-10 12:36:00,
2013-09-10 07:41:00,71.5,67.7,29.86,ESE,113,0.4,2.0,88,0.00,,,0.00,WUHU216HW,2013-09-10 12:41:00,
2013-09-10 07:46:00,71.6,67.9,29.86,ESE,113,0.4,2.0,88,0.00,,,0.00,WUHU216HW,2013-09-10 12:46:00,
2013-09-10 07:51:00,72.0,68.2,29.86,ESE,113,0.0,0.9,88,0.00,,,0.00,WUHU216HW,2013-09-10 12:51:00,
2013-09-10 07:56:00,72.4,68.6,29.86,ESE,113,0.0,1.1,88,0.00,,,0.00,WUHU216HW,2013-09-10 12:56:00,
2013-09-10 08:01:00,73.3,69.8,29.86,ESE,113,0.0,1.1,89,0.00,,,0.00,WUHU216HW,2013-09-10 13:01:00,
2013-09-10 08:06:00,73.4,69.7,29.86,ESE,113,0.7,1.1,88,0.00,,,0.00,WUHU216HW,2013-09-10 13:06:00,
2013-09-10 08:11:00,73.8,69.8,29.86,SE,135,1.6,1.6,87,0.00,,,0.00,WUHU216HW,2013-09-10 13:11:00,
2013-09-10 08:16:00,73.8,69.8,29.86,ESE,113,1.3,2.2,87,0.00,,,0.00,WUHU216HW,2013-09-10 13:16:00,
2013-09-10 08:21:00,74.0,69.9,29.86,SE,135,0.4,2.2,87,0.00,,,0.00,WUHU216HW,2013-09-10 13:21:00,
2013-09-10 08:26:00,74.2,70.1,29.86,SSE,158,2.0,3.6,87,0.00,,,0.00,WUHU216HW,2013-09-10 13:26:00,
2013-09-10 08:31:00,74.3,69.9,29.86,SE,135,1.1,3.6,86,0.00,,,0.00,WUHU216HW,2013-09-10 13:31:00,
2013-09-10 08:36:00,74.9,70.5,29.86,ESE,113,4.7,4.7,86,0.00,,,0.00,WUHU216HW,2013-09-10 13:36:00,
2013-09-10 08:41:00,75.2,70.5,29.87,SE,135,3.4,5.4,85,0.00,,,0.00,WUHU216HW,2013-09-10 13:41:00,
2013-09-10 08:46:00,76.0,70.8,29.87,SSE,158,1.1,5.4,84,0.00,,,0.00,WUHU216HW,2013-09-10 13:46:00,
2013-09-10 08:51:00,76.9,70.9,29.87,ESE,113,1.8,4.3,82,0.00,,,0.00,WUHU216HW,2013-09-10 13:51:00,
2013-09-10 08:56:00,77.4,71.1,29.87,ESE,113,0.9,4.3,81,0.00,,,0.00,WUHU216HW,2013-09-10 13:56:00,
2013-09-10 09:01:00,77.4,70.7,29.87,SE,135,2.5,4.7,80,0.00,,,0.00,WUHU216HW,2013-09-10 14:01:00,
2013-09-10 09:06:00,77.8,71.1,29.87,SSE,158,3.6,4.7,80,0.00,,,0.00,WUHU216HW,2013-09-10 14:06:00,
2013-09-10 09:11:00,78.8,71.0,29.87,SE,135,4.7,6.3,77,0.00,,,0.00,WUHU216HW,2013-09-10 14:11:00,
2013-09-10 09:16:00,79.2,70.9,29.87,ESE,113,2.9,7.2,76,0.00,,,0.00,WUHU216HW,2013-09-10 14:16:00,
2013-09-10 09:21:00,80.3,71.6,29.88,SE,135,1.3,7.2,75,0.00,,,0.00,WUHU216HW,2013-09-10 14:21:00,
2013-09-10 09:26:00,81.0,71.6,29.88,SE,135,1.8,5.8,73,0.00,,,0.00,WUHU216HW,2013-09-10 14:26:00,
2013-09-10 09:31:00,83.3,72.5,29.88,ESE,113,4.0,5.8,70,0.00,,,0.00,WUHU216HW,2013-09-10 14:31:00,
2013-09-10 09:36:00,83.2,71.9,29.88,ESE,113,5.8,5.8,69,0.00,,,0.00,WUHU216HW,2013-09-10 14:36:00,
2013-09-10 09:41:00,84.6,72.5,29.88,ESE,113,3.1,6.9,67,0.00,,,0.00,WUHU216HW,2013-09-10 14:41:00,
2013-09-10 09:46:00,84.4,70.9,29.89,SW,225,5.4,9.2,64,0.00,,,0.00,WUHU216HW,2013-09-10 14:46:00,
2013-09-10 09:51:00,83.2,71.0,29.88,SE,135,4.0,9.2,67,0.00,,,0.00,WUHU216HW,2013-09-10 14:51:00,
2013-09-10 09:56:00,83.5,71.4,29.88,SE,135,2.2,4.7,67,0.00,,,0.00,WUHU216HW,2013-09-10 14:56:00,
2013-09-10 10:01:00,83.7,71.6,29.88,East,90,1.1,5.4,67,0.00,,,0.00,WUHU216HW,2013-09-10 15:01:00,
2013-09-10 10:06:00,83.3,71.2,29.89,SE,135,2.5,5.4,67,0.00,,,0.00,WUHU216HW,2013-09-10 15:06:00,
2013-09-10 10:11:00,85.0,72.8,29.89,ESE,113,4.7,4.7,67,0.00,,,0.00,WUHU216HW,2013-09-10 15:11:00,
2013-09-10 10:16:00,87.8,72.8,29.89,ESE,113,6.7,6.7,61,0.00,,,0.00,WUHU216HW,2013-09-10 15:16:00,
2013-09-10 10:21:00,87.8,71.8,29.89,West,270,2.7,7.4,59,0.00,,,0.00,WUHU216HW,2013-09-10 15:21:00,
2013-09-10 10:26:00,88.4,72.3,29.89,ENE,68,4.0,7.8,59,0.00,,,0.00,WUHU216HW,2013-09-10 15:26:00,
2013-09-10 10:31:00,88.2,72.2,29.90,SE,135,2.5,7.8,59,0.00,,,0.00,WUHU216HW,2013-09-10 15:31:00,
2013-09-10 10:36:00,88.7,71.6,29.90,SE,135,4.9,6.3,57,0.00,,,0.00,WUHU216HW,2013-09-10 15:36:00,
2013-09-10 10:41:00,89.5,72.7,29.89,South,180,4.0,7.4,58,0.00,,,0.00,WUHU216HW,2013-09-10 15:41:00,
2013-09-10 10:46:00,88.9,71.2,29.89,SSE,158,6.5,7.4,56,0.00,,,0.00,WUHU216HW,2013-09-10 15:46:00,
2013-09-10 10:51:00,89.1,71.9,29.89,South,180,2.2,6.5,57,0.00,,,0.00,WUHU216HW,2013-09-10 15:51:00,
2013-09-10 10:56:00,89.3,71.5,29.90,SE,135,3.4,6.5,56,0.00,,,0.00,WUHU216HW,2013-09-10 15:56:00,
2013-09-10 11:01:00,89.1,71.4,29.90,SE,135,6.3,6.5,56,0.00,,,0.00,WUHU216HW,2013-09-10 16:01:00,
2013-09-10 11:06:00,88.6,71.4,29.89,SSE,158,2.7,6.3,57,0.00,,,0.00,WUHU216HW,2013-09-10 16:06:00,
2013-09-10 11:11:00,89.6,70.2,29.89,ESE,113,3.8,6.0,53,0.00,,,0.00,WUHU216HW,2013-09-10 16:11:00,
2013-09-10 11:16:00,88.6,70.3,29.89,SE,135,5.1,5.6,55,0.00,,,0.00,WUHU216HW,2013-09-10 16:16:00,
2013-09-10 11:21:00,88.4,70.1,29.89,SSE,158,3.1,6.9,55,0.00,,,0.00,WUHU216HW,2013-09-10 16:21:00,
2013-09-10 11:26:00,89.3,70.4,29.90,SE,135,2.7,6.9,54,0.00,,,0.00,WUHU216HW,2013-09-10 16:26:00,
2013-09-10 11:31:00,89.3,69.8,29.90,SE,135,5.4,6.9,53,0.00,,,0.00,WUHU216HW,2013-09-10 16:31:00,
2013-09-10 11:36:00,89.8,69.9,29.90,SE,135,2.9,5.6,52,0.00,,,0.00,WUHU216HW,2013-09-10 16:36:00,
2013-09-10 11:41:00,89.8,69.3,29.90,SSE,158,7.2,7.2,51,0.00,,,0.00,WUHU216HW,2013-09-10 16:41:00,
2013-09-10 11:46:00,90.9,69.8,29.89,ESE,113,5.6,7.2,50,0.00,,,0.00,WUHU216HW,2013-09-10 16:46:00,
2013-09-10 11:51:00,92.0,68.8,29.89,South,180,7.2,8.1,47,0.00,,,0.00,WUHU216HW,2013-09-10 16:51:00,
2013-09-10 11:56:00,92.9,69.0,29.89,ESE,113,6.0,8.1,46,0.00,,,0.00,WUHU216HW,2013-09-10 16:56:00,
2013-09-10 12:01:00,91.6,69.0,29.90,SE,135,4.0,7.4,48,0.00,,,0.00,WUHU216HW,2013-09-10 17:01:00,
2013-09-10 12:06:00,91.6,68.4,29.89,ESE,113,6.9,7.4,47,0.00,,,0.00,WUHU216HW,2013-09-10 17:06:00,
2013-09-10 12:11:00,90.7,69.0,29.89,SSE,158,7.2,7.2,49,0.00,,,0.00,WUHU216HW,2013-09-10 17:11:00,
2013-09-10 12:16:00,90.5,68.1,29.89,ESE,113,7.4,8.5,48,0.00,,,0.00,WUHU216HW,2013-09-10 17:16:00,
2013-09-10 12:21:00,88.9,68.0,29.89,NNE,23,3.6,8.5,50,0.00,,,0.00,WUHU216HW,2013-09-10 17:21:00,
2013-09-10 12:26:00,90.0,68.2,29.89,SE,135,8.5,8.5,49,0.00,,,0.00,WUHU216HW,2013-09-10 17:26:00,
2013-09-10 12:31:00,90.4,68.6,29.89,South,180,5.1,8.5,49,0.00,,,0.00,WUHU216HW,2013-09-10 17:31:00,
2013-09-10 12:36:00,91.4,68.2,29.89,SE,135,5.4,8.3,47,0.00,,,0.00,WUHU216HW,2013-09-10 17:36:00,
2013-09-10 12:41:00,93.8,69.1,29.88,SSW,203,4.7,8.3,45,0.00,,,0.00,WUHU216HW,2013-09-10 17:41:00,
2013-09-10 12:46:00,93.4,68.1,29.88,ESE,113,6.3,7.4,44,0.00,,,0.00,WUHU216HW,2013-09-10 17:46:00,
2013-09-10 12:51:00,93.1,68.4,29.88,East,90,8.9,8.9,45,0.00,,,0.00,WUHU216HW,2013-09-10 17:51:00,
2013-09-10 12:56:00,91.3,68.1,29.88,SE,135,3.1,8.9,47,0.00,,,0.00,WUHU216HW,2013-09-10 17:56:00,
2013-09-10 13:01:00,91.8,68.6,29.87,NE,45,1.6,5.1,47,0.00,,,0.00,WUHU216HW,2013-09-10 18:01:00,
2013-09-10 13:06:00,90.5,67.4,29.87,SSE,158,3.1,5.4,47,0.00,,,0.00,WUHU216HW,2013-09-10 18:06:00,
2013-09-10 13:11:00,91.8,68.0,29.87,SSE,158,4.0,5.4,46,0.00,,,0.00,WUHU216HW,2013-09-10 18:11:00,
2013-09-10 13:16:00,92.5,68.0,29.87,SSE,158,6.7,6.7,45,0.00,,,0.00,WUHU216HW,2013-09-10 18:16:00,
2013-09-10 13:21:00,92.7,68.1,29.87,SW,225,1.1,8.3,45,0.00,,,0.00,WUHU216HW,2013-09-10 18:21:00,
2013-09-10 13:26:00,94.0,68.6,29.86,ESE,113,4.7,8.3,44,0.00,,,0.00,WUHU216HW,2013-09-10 18:26:00,
2013-09-10 13:31:00,92.7,67.4,29.86,East,90,1.8,5.8,44,0.00,,,0.00,WUHU216HW,2013-09-10 18:31:00,
2013-09-10 13:36:00,91.8,67.3,29.86,SE,135,3.4,5.8,45,0.00,,,0.00,WUHU216HW,2013-09-10 18:36:00,
2013-09-10 13:41:00,92.2,66.3,29.86,SSE,158,3.1,6.5,43,0.00,,,0.00,WUHU216HW,2013-09-10 18:41:00,
2013-09-10 13:46:00,91.4,67.0,29.86,East,90,2.0,6.5,45,0.00,,,0.00,WUHU216HW,2013-09-10 18:46:00,
2013-09-10 13:51:00,92.5,67.3,29.86,SSE,158,2.7,5.8,44,0.00,,,0.00,WUHU216HW,2013-09-10 18:51:00,
2013-09-10 13:56:00,91.4,67.0,29.86,SE,135,3.4,8.5,45,0.00,,,0.00,WUHU216HW,2013-09-10 18:56:00,
2013-09-10 14:01:00,91.3,67.4,29.86,ESE,113,2.5,8.5,46,0.00,,,0.00,WUHU216HW,2013-09-10 19:01:00,
2013-09-10 14:06:00,90.2,67.2,29.86,ENE,68,7.2,7.2,47,0.00,,,0.00,WUHU216HW,2013-09-10 19:06:00,
2013-09-10 14:11:00,89.1,66.8,29.85,SE,135,1.8,7.2,48,0.00,,,0.00,WUHU216HW,2013-09-10 19:11:00,
2013-09-10 14:16:00,89.3,67.6,29.85,SSE,158,4.0,6.5,49,0.00,,,0.00,WUHU216HW,2013-09-10 19:16:00,
2013-09-10 14:21:00,89.8,68.1,29.84,SSE,158,5.4,5.4,49,0.00,,,0.00,WUHU216HW,2013-09-10 19:21:00,
2013-09-10 14:26:00,90.7,68.2,29.84,SE,135,3.6,7.8,48,0.00,,,0.00,WUHU216HW,2013-09-10 19:26:00,
2013-09-10 14:31:00,92.0,68.8,29.84,SE,135,3.4,7.8,47,0.00,,,0.00,WUHU216HW,2013-09-10 19:31:00,
2013-09-10 14:36:00,91.8,68.0,29.84,East,90,4.7,8.7,46,0.00,,,0.00,WUHU216HW,2013-09-10 19:36:00,
2013-09-10 14:41:00,90.9,67.8,29.84,SE,135,6.0,9.2,47,0.00,,,0.00,WUHU216HW,2013-09-10 19:41:00,
2013-09-10 14:46:00,91.1,68.0,29.84,SSE,158,4.0,9.2,47,0.00,,,0.00,WUHU216HW,2013-09-10 19:46:00,
2013-09-10 14:51:00,91.1,67.3,29.84,South,180,5.8,9.4,46,0.00,,,0.00,WUHU216HW,2013-09-10 19:51:00,
2013-09-10 14:56:00,91.4,68.2,29.84,SW,225,4.3,9.4,47,0.00,,,0.00,WUHU216HW,2013-09-10 19:56:00,
2013-09-10 15:01:00,92.5,68.0,29.84,SE,135,3.1,6.7,45,0.00,,,0.00,WUHU216HW,2013-09-10 20:01:00,
2013-09-10 15:06:00,92.0,67.4,29.84,South,180,4.5,6.5,45,0.00,,,0.00,WUHU216HW,2013-09-10 20:06:00,
2013-09-10 15:11:00,91.4,67.0,29.83,SSE,158,1.3,6.5,45,0.00,,,0.00,WUHU216HW,2013-09-10 20:11:00,
2013-09-10 15:16:00,91.8,67.3,29.83,South,180,3.6,5.1,45,0.00,,,0.00,WUHU216HW,2013-09-10 20:16:00,
2013-09-10 15:21:00,92.2,67.6,29.82,SSE,158,6.9,6.9,45,0.00,,,0.00,WUHU216HW,2013-09-10 20:21:00,
2013-09-10 15:26:00,92.0,68.1,29.82,ESE,113,1.8,6.9,46,0.00,,,0.00,WUHU216HW,2013-09-10 20:26:00,
2013-09-10 15:31:00,90.7,67.6,29.82,SE,135,3.6,9.8,47,0.00,,,0.00,WUHU216HW,2013-09-10 20:31:00,
2013-09-10 15:36:00,90.9,67.8,29.82,ESE,113,6.3,9.8,47,0.00,,,0.00,WUHU216HW,2013-09-10 20:36:00,
2013-09-10 15:41:00,90.4,67.3,29.81,ESE,113,6.3,7.4,47,0.00,,,0.00,WUHU216HW,2013-09-10 20:41:00,
2013-09-10 15:46:00,89.6,67.3,29.81,ESE,113,5.1,7.6,48,0.00,,,0.00,WUHU216HW,2013-09-10 20:46:00,
2013-09-10 15:51:00,89.3,67.0,29.82,SSE,158,4.7,7.6,48,0.00,,,0.00,WUHU216HW,2013-09-10 20:51:00,
2013-09-10 15:56:00,89.3,67.0,29.81,South,180,7.2,7.2,48,0.00,,,0.00,WUHU216HW,2013-09-10 20:56:00,
2013-09-10 16:01:00,89.6,67.3,29.81,South,180,2.5,7.2,48,0.00,,,0.00,WUHU216HW,2013-09-10 21:01:00,
2013-09-10 16:06:00,89.8,66.8,29.81,ESE,113,6.7,11.0,47,0.00,,,0.00,WUHU216HW,2013-09-10 21:06:00,
2013-09-10 16:11:00,89.5,67.2,29.81,South,180,4.5,11.0,48,0.00,,,0.00,WUHU216HW,2013-09-10 21:11:00,
2013-09-10 16:16:00,89.3,67.0,29.81,SSE,158,4.5,7.8,48,0.00,,,0.00,WUHU216HW,2013-09-10 21:16:00,
2013-09-10 16:21:00,89.6,67.3,29.81,SE,135,4.7,7.4,48,0.00,,,0.00,WUHU216HW,2013-09-10 21:21:00,
2013-09-10 16:26:00,89.8,67.4,29.81,ESE,113,6.5,6.5,48,0.00,,,0.00,WUHU216HW,2013-09-10 21:26:00,
2013-09-10 16:31:00,90.2,66.5,29.81,SSE,158,2.7,6.5,46,0.00,,,0.00,WUHU216HW,2013-09-10 21:31:00,
2013-09-10 16:36:00,90.4,67.3,29.81,SSE,158,5.1,9.8,47,0.00,,,0.00,WUHU216HW,2013-09-10 21:36:00,
2013-09-10 16:41:00,90.5,67.4,29.80,SE,135,4.0,9.8,47,0.00,,,0.00,WUHU216HW,2013-09-10 21:41:00,
2013-09-10 16:46:00,90.9,67.2,29.81,SE,135,6.7,6.7,46,0.00,,,0.00,WUHU216HW,2013-09-10 21:46:00,
2013-09-10 16:51:00,90.5,66.8,29.81,SSE,158,6.7,6.7,46,0.00,,,0.00,WUHU216HW,2013-09-10 21:51:00,
2013-09-10 16:56:00,90.7,67.0,29.81,SSE,158,6.9,6.9,46,0.00,,,0.00,WUHU216HW,2013-09-10 21:56:00,
2013-09-10 17:00:00,90.7,66.3,29.81,SSE,158,3.6,8.5,45,0.00,,,0.00,WUHU216HW,2013-09-10 22:00:00,
2013-09-10 17:06:00,90.4,66.0,29.81,SSE,158,3.1,8.5,45,0.00,,,0.00,WUHU216HW,2013-09-10 22:06:00,
2013-09-10 17:10:00,90.0,66.3,29.81,SE,135,6.5,10.5,46,0.00,,,0.00,WUHU216HW,2013-09-10 22:10:00,
2013-09-10 17:15:00,88.4,68.5,29.82,South,180,8.5,16.6,52,0.00,,,0.00,WUHU216HW,2013-09-10 22:15:00,
2013-09-10 17:21:00,86.4,68.3,29.82,SSW,203,8.3,16.6,55,0.00,,,0.00,WUHU216HW,2013-09-10 22:21:00,
2013-09-10 17:25:00,86.0,68.5,29.82,SSE,158,6.9,12.8,56,0.00,,,0.00,WUHU216HW,2013-09-10 22:25:00,
2013-09-10 17:30:00,84.1,69.7,29.83,SE,135,5.8,11.6,62,0.00,,,0.00,WUHU216HW,2013-09-10 22:30:00,
2013-09-10 17:35:00,82.3,69.7,29.83,WSW,248,2.2,11.6,66,0.00,,,0.00,WUHU216HW,2013-09-10 22:35:00,
2013-09-10 17:40:00,82.1,69.5,29.83,South,180,6.9,8.7,66,0.00,,,0.00,WUHU216HW,2013-09-10 22:40:00,
2013-09-10 17:45:00,82.3,69.7,29.83,ESE,113,5.8,8.7,66,0.00,,,0.00,WUHU216HW,2013-09-10 22:45:00,
2013-09-10 17:50:00,81.9,69.9,29.83,SSE,158,4.3,8.9,67,0.00,,,0.00,WUHU216HW,2013-09-10 22:50:00,
2013-09-10 17:56:00,81.7,69.7,29.83,SSE,158,4.0,9.6,67,0.00,,,0.00,WUHU216HW,2013-09-10 22:56:00,
2013-09-10 18:01:00,81.5,69.0,29.84,SSW,203,5.1,9.6,66,0.00,,,0.00,WUHU216HW,2013-09-10 23:01:00,
2013-09-10 18:06:00,81.0,68.6,29.84,SSE,158,4.5,8.1,66,0.00,,,0.00,WUHU216HW,2013-09-10 23:06:00,
2013-09-10 18:11:00,80.6,68.2,29.84,SE,135,6.3,8.1,66,0.00,,,0.00,WUHU216HW,2013-09-10 23:11:00,
2013-09-10 18:16:00,80.3,67.9,29.84,SE,135,3.8,8.9,66,0.00,,,0.00,WUHU216HW,2013-09-10 23:16:00,
2013-09-10 18:21:00,80.1,67.7,29.84,SE,135,5.4,8.9,66,0.00,,,0.00,WUHU216HW,2013-09-10 23:21:00,
2013-09-10 18:26:00,79.9,67.5,29.84,SSE,158,3.1,5.8,66,0.00,,,0.00,WUHU216HW,2013-09-10 23:26:00,
2013-09-10 18:31:00,79.6,67.6,29.84,South,180,4.0,5.8,67,0.00,,,0.00,WUHU216HW,2013-09-10 23:31:00,
2013-09-10 18:36:00,79.7,67.3,29.84,SE,135,2.0,4.7,66,0.00,,,0.00,WUHU216HW,2013-09-10 23:36:00,
2013-09-10 18:41:00,79.7,67.3,29.83,SSE,158,2.5,4.7,66,0.00,,,0.00,WUHU216HW,2013-09-10 23:41:00,
2013-09-10 18:46:00,79.9,68.0,29.84,SE,135,6.3,6.3,67,0.00,,,0.00,WUHU216HW,2013-09-10 23:46:00,
2013-09-10 18:51:00,79.7,67.8,29.84,South,180,5.4,7.8,67,0.00,,,0.00,WUHU216HW,2013-09-10 23:51:00,
2013-09-10 18:56:00,79.7,67.8,29.84,SE,135,3.6,7.8,67,0.00,,,0.00,WUHU216HW,2013-09-10 23:56:00,
2013-09-10 19:01:00,79.6,67.6,29.84,SSW,203,3.8,5.1,67,0.00,,,0.00,WUHU216HW,2013-09-11 00:01:00,
2013-09-10 19:06:00,79.6,67.6,29.84,SSE,158,2.5,5.4,67,0.00,,,0.00,WUHU216HW,2013-09-11 00:06:00,
2013-09-10 19:11:00,79.6,67.6,29.84,South,180,2.0,5.4,67,0.00,,,0.00,WUHU216HW,2013-09-11 00:11:00,
2013-09-10 19:16:00,79.4,67.1,29.84,SSE,158,1.1,4.0,66,0.00,,,0.00,WUHU216HW,2013-09-11 00:16:00,
2013-09-10 19:21:00,79.4,67.1,29.84,South,180,1.6,3.4,66,0.00,,,0.00,WUHU216HW,2013-09-11 00:21:00,
2013-09-10 19:26:00,79.2,66.9,29.84,SE,135,1.6,3.6,66,0.00,,,0.00,WUHU216HW,2013-09-11 00:26:00,
2013-09-10 19:31:00,79.2,66.9,29.84,SSE,158,1.8,3.6,66,0.00,,,0.00,WUHU216HW,2013-09-11 00:31:00,
2013-09-10 19:36:00,79.0,66.7,29.84,SE,135,0.7,3.4,66,0.00,,,0.00,WUHU216HW,2013-09-11 00:36:00,
2013-09-10 19:41:00,78.8,66.5,29.84,SSE,158,0.0,3.4,66,0.00,,,0.00,WUHU216HW,2013-09-11 00:41:00,
2013-09-10 19:46:00,78.7,66.3,29.84,SSE,158,0.7,1.6,66,0.00,,,0.00,WUHU216HW,2013-09-11 00:46:00,
2013-09-10 19:51:00,78.3,66.4,29.84,SSE,158,0.0,0.7,67,0.00,,,0.00,WUHU216HW,2013-09-11 00:51:00,
2013-09-10 19:56:00,78.1,66.2,29.84,SSE,158,0.0,0.2,67,0.00,,,0.00,WUHU216HW,2013-09-11 00:56:00,
2013-09-10 20:00:00,77.8,65.9,29.84,SSE,158,0.0,0.2,67,0.00,,,0.00,WUHU216HW,2013-09-11 01:00:00,
2013-09-10 20:05:00,77.4,66.1,29.84,SSE,158,0.0,0.0,68,0.00,,,0.00,WUHU216HW,2013-09-11 01:05:00,
2013-09-10 20:10:00,77.2,65.9,29.84,SSE,158,0.0,1.1,68,0.00,,,0.00,WUHU216HW,2013-09-11 01:10:00,
2013-09-10 20:16:00,77.0,66.2,29.84,South,180,0.0,1.1,69,0.00,,,0.00,WUHU216HW,2013-09-11 01:16:00,
2013-09-10 20:21:00,77.0,66.2,29.85,SE,135,0.4,1.8,69,0.00,,,0.00,WUHU216HW,2013-09-11 01:21:00,
2013-09-10 20:26:00,77.0,66.2,29.84,SE,135,0.0,1.8,69,0.00,,,0.00,WUHU216HW,2013-09-11 01:26:00,
2013-09-10 20:31:00,76.7,65.8,29.84,SE,135,0.0,0.0,69,0.00,,,0.00,WUHU216HW,2013-09-11 01:31:00,
2013-09-10 20:36:00,76.3,65.4,29.85,SSE,158,0.0,0.0,69,0.00,,,0.00,WUHU216HW,2013-09-11 01:36:00,
2013-09-10 20:41:00,76.0,65.1,29.85,SSE,158,0.0,0.0,69,0.00,,,0.00,WUHU216HW,2013-09-11 01:41:00,
2013-09-10 20:46:00,75.6,65.2,29.85,SSE,158,0.0,0.0,70,0.00,,,0.00,WUHU216HW,2013-09-11 01:46:00,
2013-09-10 20:51:00,75.4,65.0,29.86,SSE,158,0.0,0.0,70,0.00,,,0.00,WUHU216HW,2013-09-11 01:51:00,
2013-09-10 20:56:00,75.1,65.1,29.86,SSE,158,0.0,0.9,71,0.00,,,0.00,WUHU216HW,2013-09-11 01:56:00,
2013-09-10 21:01:00,74.7,64.7,29.86,SSE,158,0.0,0.9,71,0.00,,,0.00,WUHU216HW,2013-09-11 02:01:00,
2013-09-10 21:06:00,74.5,64.5,29.86,SSE,158,0.0,0.2,71,0.00,,,0.00,WUHU216HW,2013-09-11 02:06:00,
2013-09-10 21:11:00,74.3,64.4,29.86,SSE,158,0.4,0.4,71,0.00,,,0.00,WUHU216HW,2013-09-11 02:11:00,
2013-09-10 21:16:00,74.2,64.6,29.86,South,180,0.0,0.7,72,0.00,,,0.00,WUHU216HW,2013-09-11 02:16:00,
2013-09-10 21:21:00,73.8,64.3,29.86,South,180,0.0,0.7,72,0.00,,,0.00,WUHU216HW,2013-09-11 02:21:00,
2013-09-10 21:26:00,73.6,64.1,29.86,South,180,0.0,0.0,72,0.00,,,0.00,WUHU216HW,2013-09-11 02:26:00,
2013-09-10 21:31:00,73.4,64.4,29.86,South,180,0.0,0.0,73,0.00,,,0.00,WUHU216HW,2013-09-11 02:31:00,
2013-09-10 21:36:00,73.3,64.2,29.87,South,180,0.0,0.0,73,0.00,,,0.00,WUHU216HW,2013-09-11 02:36:00,
2013-09-10 21:41:00,73.1,64.0,29.87,South,180,0.0,0.0,73,0.00,,,0.00,WUHU216HW,2013-09-11 02:41:00,
2013-09-10 21:46:00,72.7,64.0,29.87,South,180,0.0,0.0,74,0.00,,,0.00,WUHU216HW,2013-09-11 02:46:00,
2013-09-10 21:51:00,72.5,63.8,29.87,South,180,0.0,0.0,74,0.00,,,0.00,WUHU216HW,2013-09-11 02:51:00,
2013-09-10 21:56:00,72.4,63.6,29.87,SSW,203,1.1,1.3,74,0.00,,,0.00,WUHU216HW,2013-09-11 02:56:00,
2013-09-10 22:01:00,72.2,63.5,29.87,SSW,203,0.7,1.3,74,0.00,,,0.00,WUHU216HW,2013-09-11 03:01:00,
2013-09-10 22:06:00,72.0,63.3,29.87,SSW,203,0.0,1.1,74,0.00,,,0.00,WUHU216HW,2013-09-11 03:06:00,
2013-09-10 22:11:00,72.2,63.8,29.87,SSW,203,0.0,0.9,75,0.00,,,0.00,WUHU216HW,2013-09-11 03:11:00,
2013-09-10 22:16:00,72.2,63.8,29.87,SSW,203,0.0,0.9,75,0.00,,,0.00,WUHU216HW,2013-09-11 03:16:00,
2013-09-10 22:21:00,72.2,63.8,29.87,SSW,203,0.0,0.7,75,0.00,,,0.00,WUHU216HW,2013-09-11 03:21:00,
2013-09-10 22:26:00,72.0,63.6,29.87,SSW,203,0.2,0.7,75,0.00,,,0.00,WUHU216HW,2013-09-11 03:26:00,
2013-09-10 22:31:00,71.8,63.8,29.88,SSW,203,0.0,0.7,76,0.00,,,0.00,WUHU216HW,2013-09-11 03:31:00,
2013-09-10 22:36:00,71.6,63.3,29.88,SSW,203,0.4,1.1,75,0.00,,,0.00,WUHU216HW,2013-09-11 03:36:00,
2013-09-10 22:41:00,71.5,63.1,29.88,SSW,203,1.1,1.1,75,0.00,,,0.00,WUHU216HW,2013-09-11 03:41:00,
2013-09-10 22:46:00,71.5,63.5,29.88,SW,225,0.0,1.1,76,0.00,,,0.00,WUHU216HW,2013-09-11 03:46:00,
2013-09-10 22:51:00,71.3,63.3,29.88,SW,225,0.0,0.4,76,0.00,,,0.00,WUHU216HW,2013-09-11 03:51:00,
2013-09-10 22:56:00,71.3,63.3,29.89,SSW,203,0.0,0.9,76,0.00,,,0.00,WUHU216HW,2013-09-11 03:56:00,
2013-09-10 23:01:00,71.1,63.1,29.89,SSW,203,0.0,0.9,76,0.00,,,0.00,WUHU216HW,2013-09-11 04:01:00,
2013-09-10 23:06:00,70.9,63.3,29.89,SSW,203,0.0,0.0,77,0.00,,,0.00,WUHU216HW,2013-09-11 04:06:00,
2013-09-10 23:11:00,70.6,62.9,29.89,SSW,203,0.0,0.0,77,0.00,,,0.00,WUHU216HW,2013-09-11 04:11:00,
2013-09-10 23:16:00,70.4,62.7,29.89,SSW,203,0.0,0.0,77,0.00,,,0.00,WUHU216HW,2013-09-11 04:16:00,
2013-09-10 23:21:00,70.2,62.6,29.89,SSW,203,0.0,0.0,77,0.00,,,0.00,WUHU216HW,2013-09-11 04:21:00,
2013-09-10 23:26:00,70.2,62.6,29.89,SSW,203,0.0,0.0,77,0.00,,,0.00,WUHU216HW,2013-09-11 04:26:00,
2013-09-10 23:31:00,69.8,62.2,29.89,SSW,203,0.0,0.0,77,0.00,,,0.00,WUHU216HW,2013-09-11 04:31:00,
2013-09-10 23:36:00,69.8,62.2,29.89,SSW,203,0.0,0.0,77,0.00,,,0.00,WUHU216HW,2013-09-11 04:36:00,
2013-09-10 23:41:00,69.7,62.5,29.89,SSW,203,0.0,0.0,78,0.00,,,0.00,WUHU216HW,2013-09-11 04:41:00,
2013-09-10 23:46:00,69.5,62.3,29.89,SSW,203,0.0,0.0,78,0.00,,,0.00,WUHU216HW,2013-09-11 04:46:00,
2013-09-10 23:51:00,69.5,62.6,29.89,SSW,203,0.0,0.0,79,0.00,,,0.00,WUHU216HW,2013-09-11 04:51:00,
2013-09-10 23:56:00,69.3,62.1,29.88,SSW,203,0.0,0.2,78,0.00,,,0.00,WUHU216HW,2013-09-11 04:56:00,